createdAt,value
2023-03-22T00:00:15.210Z,4.44
2023-03-22T00:02:41.999Z,4.47
2023-03-22T00:05:09.608Z,4.42
2023-03-22T00:07:37.749Z,4.34
2023-03-22T00:10:05.580Z,4.35
2023-03-22T00:12:32.141Z,4.43
2023-03-22T00:15:00.169Z,4.60
2023-03-22T00:17:26.873Z,4.51
2023-03-22T00:19:54.633Z,4.52
2023-03-22T00:22:21.866Z,4.75
2023-03-22T00:24:48.514Z,4.56
2023-03-22T00:27:15.862Z,4.46
2023-03-22T00:29:42.766Z,4.28
2023-03-22T00:32:09.397Z,4.15
2023-03-22T00:34:36.238Z,3.95
2023-03-22T00:37:02.839Z,3.89
2023-03-22T00:39:29.490Z,3.98
2023-03-22T00:41:56.270Z,3.79
2023-03-22T00:44:22.886Z,3.81
2023-03-22T00:46:49.491Z,3.64
2023-03-22T00:49:16.138Z,3.54
2023-03-22T00:51:42.707Z,3.44
2023-03-22T00:54:09.474Z,3.37
2023-03-22T00:56:37.633Z,3.33
2023-03-22T00:59:04.768Z,3.19
2023-03-22T01:01:31.644Z,3.17
2023-03-22T01:03:58.351Z,3.25
2023-03-22T01:06:25.224Z,3.12
2023-03-22T01:08:55.082Z,3.02
2023-03-22T01:11:21.683Z,2.93
2023-03-22T01:13:48.322Z,3.06
2023-03-22T01:16:15.716Z,2.91
2023-03-22T01:18:42.417Z,2.99
2023-03-22T01:21:09.762Z,2.91
2023-03-22T01:23:36.862Z,2.87
2023-03-22T01:26:04.656Z,2.88
2023-03-22T01:28:31.414Z,2.74
2023-03-22T01:31:02.621Z,2.69
2023-03-22T01:33:30.947Z,2.72
2023-03-22T01:35:57.613Z,2.59
2023-03-22T01:38:24.223Z,2.49
2023-03-22T01:40:51.066Z,2.43
2023-03-22T01:43:18.003Z,2.38
2023-03-22T01:45:48.313Z,2.37
2023-03-22T01:48:37.668Z,2.28
2023-03-22T01:51:07.230Z,2.11
2023-03-22T01:53:39.335Z,2.14
2023-03-22T01:56:06.395Z,2.10
2023-03-22T01:58:36.426Z,2.08
2023-03-22T02:01:04.060Z,2.02
2023-03-22T02:03:41.901Z,1.90
2023-03-22T02:06:08.694Z,1.82
2023-03-22T02:08:35.311Z,1.71
2023-03-22T02:11:03.734Z,1.82
2023-03-22T02:13:48.023Z,1.96
2023-03-22T02:16:32.986Z,2.00
2023-03-22T02:19:31.918Z,2.03
2023-03-22T02:22:14.533Z,2.09
2023-03-22T02:25:15.428Z,2.25
2023-03-22T02:27:53.196Z,2.26
2023-03-22T02:30:56.788Z,1.96
2023-03-22T02:34:06.061Z,1.84
2023-03-22T02:36:42.678Z,1.59
2023-03-22T02:39:15.492Z,1.79
2023-03-22T02:42:08.239Z,1.68
2023-03-22T02:44:42.132Z,1.65
2023-03-22T02:47:20.586Z,1.70
2023-03-22T02:49:56.290Z,1.87
2023-03-22T02:52:46.541Z,1.64
2023-03-22T02:55:34.832Z,1.68
2023-03-22T02:58:06.828Z,1.68
2023-03-22T03:00:35.824Z,1.89
2023-03-22T03:03:11.493Z,1.83
2023-03-22T03:05:46.778Z,1.78
2023-03-22T03:08:15.937Z,1.59
2023-03-22T03:10:44.064Z,1.59
2023-03-22T03:13:17.928Z,1.58
2023-03-22T03:15:48.773Z,1.72
2023-03-22T03:18:24.561Z,1.73
2023-03-22T03:20:54.499Z,1.79
2023-03-22T03:23:24.483Z,2.07
2023-03-22T03:26:28.688Z,2.05
2023-03-22T03:29:31.056Z,2.14
2023-03-22T03:32:03.312Z,2.46
2023-03-22T03:34:36.227Z,2.50
2023-03-22T03:37:19.927Z,2.53
2023-03-22T03:40:10.825Z,2.73
2023-03-22T03:42:41.953Z,2.85
2023-03-22T03:45:09.623Z,2.84
2023-03-22T03:47:37.005Z,2.99
2023-03-22T03:50:06.352Z,3.08
2023-03-22T03:52:32.957Z,3.04
2023-03-22T03:54:59.930Z,2.97
2023-03-22T03:57:26.486Z,2.90
2023-03-22T03:59:53.028Z,3.11
2023-03-22T04:02:19.693Z,3.04
2023-03-22T04:04:46.632Z,3.03
2023-03-22T04:07:13.358Z,2.95
2023-03-22T04:09:41.260Z,3.04
2023-03-22T04:12:09.794Z,2.94
2023-03-22T04:14:36.376Z,2.95
2023-03-22T04:17:03.491Z,2.80
2023-03-22T04:19:31.229Z,2.79
2023-03-22T04:21:58.006Z,3.09
2023-03-22T04:24:24.568Z,2.94
2023-03-22T04:26:52.438Z,3.04
2023-03-22T04:29:19.139Z,3.14
2023-03-22T04:31:45.800Z,3.20
2023-03-22T04:34:12.358Z,3.11
2023-03-22T04:36:41.907Z,2.99
2023-03-22T04:39:11.474Z,2.84
2023-03-22T04:41:38.276Z,2.75
2023-03-22T04:44:06.622Z,2.67
2023-03-22T04:46:35.970Z,2.74
2023-03-22T04:49:03.532Z,2.65
2023-03-22T04:51:32.038Z,2.74
2023-03-22T04:53:59.050Z,2.68
2023-03-22T04:56:26.122Z,2.62
2023-03-22T04:58:53.249Z,2.85
2023-03-22T05:01:19.891Z,2.87
2023-03-22T05:03:47.603Z,3.04
2023-03-22T05:06:15.263Z,3.12
2023-03-22T05:08:42.601Z,3.15
2023-03-22T05:11:14.924Z,3.15
2023-03-22T05:13:41.491Z,3.19
2023-03-22T05:16:09.548Z,3.17
2023-03-22T05:18:38.062Z,3.27
2023-03-22T05:21:06.826Z,3.40
2023-03-22T05:23:33.458Z,3.63
2023-03-22T05:26:01.716Z,3.97
2023-03-22T05:28:28.678Z,4.33
2023-03-22T05:30:57.090Z,4.53
2023-03-22T05:33:23.964Z,4.61
2023-03-22T05:35:51.303Z,4.66
2023-03-22T05:38:18.324Z,4.93
2023-03-22T05:40:45.230Z,5.12
2023-03-22T05:43:12.114Z,5.40
2023-03-22T05:45:38.836Z,5.58
2023-03-22T05:48:05.758Z,5.71
2023-03-22T05:50:33.265Z,5.85
2023-03-22T05:53:00.149Z,6.09
2023-03-22T05:55:27.189Z,6.28
2023-03-22T05:57:54.809Z,6.66
2023-03-22T06:00:21.842Z,6.90
2023-03-22T06:02:49.865Z,7.26
2023-03-22T06:05:17.561Z,7.46
2023-03-22T06:07:44.778Z,7.61
2023-03-22T06:10:13.414Z,7.84
2023-03-22T06:12:40.476Z,7.87
2023-03-22T06:15:08.311Z,8.36
2023-03-22T06:17:34.994Z,8.99
2023-03-22T06:20:01.590Z,9.52
2023-03-22T06:22:30.607Z,9.54
2023-03-22T06:24:57.210Z,10.19
2023-03-22T06:27:23.765Z,10.34
2023-03-22T06:29:54.637Z,11.15
2023-03-22T06:32:26.637Z,13.66
2023-03-22T06:34:56.614Z,15.96
2023-03-22T06:37:23.589Z,16.37
2023-03-22T06:39:51.807Z,16.08
2023-03-22T06:42:18.853Z,16.60
2023-03-22T06:44:45.474Z,16.61
2023-03-22T06:47:12.772Z,15.71
2023-03-22T06:49:40.057Z,13.59
2023-03-22T06:52:07.253Z,14.13
2023-03-22T06:54:34.222Z,15.38
2023-03-22T06:57:00.824Z,16.68
2023-03-22T06:59:27.748Z,18.21
2023-03-22T07:01:54.320Z,16.80
2023-03-22T07:04:21.181Z,19.55
2023-03-22T07:06:48.033Z,20.88
2023-03-22T07:09:14.612Z,21.31
2023-03-22T07:11:41.253Z,22.40
2023-03-22T07:14:07.920Z,20.61
2023-03-22T07:16:34.519Z,22.99
2023-03-22T07:19:01.447Z,22.06
2023-03-22T07:21:28.278Z,22.28
2023-03-22T07:23:55.487Z,20.82
2023-03-22T07:26:22.117Z,20.66
2023-03-22T07:28:48.693Z,18.93
2023-03-22T07:31:15.674Z,16.22
2023-03-22T07:33:42.360Z,17.64
2023-03-22T07:36:10.342Z,19.35
2023-03-22T07:38:37.380Z,18.86
2023-03-22T07:41:04.426Z,19.56
2023-03-22T07:43:31.009Z,17.23
2023-03-22T07:45:57.798Z,17.17
2023-03-22T07:48:24.599Z,18.00
2023-03-22T07:50:55.394Z,17.92
2023-03-22T07:53:22.049Z,16.53
2023-03-22T07:55:48.750Z,16.23
2023-03-22T07:58:15.399Z,17.70
2023-03-22T08:00:42.031Z,19.20
2023-03-22T08:03:12.301Z,18.38
2023-03-22T08:05:43.099Z,18.11
2023-03-22T08:08:10.693Z,16.86
2023-03-22T08:10:38.404Z,17.45
2023-03-22T08:13:05.205Z,18.69
2023-03-22T08:15:31.868Z,18.38
2023-03-22T08:17:58.657Z,18.64
2023-03-22T08:20:28.500Z,19.15
2023-03-22T08:22:55.379Z,19.68
2023-03-22T08:25:22.280Z,19.65
2023-03-22T08:27:48.935Z,20.78
2023-03-22T08:30:16.070Z,19.98
2023-03-22T08:32:42.743Z,19.15
2023-03-22T08:35:10.056Z,19.03
2023-03-22T08:37:36.645Z,19.51
2023-03-22T08:40:06.622Z,19.58
2023-03-22T08:42:33.264Z,20.10
2023-03-22T08:44:59.823Z,20.19
2023-03-22T08:47:26.461Z,20.45
2023-03-22T08:49:53.066Z,20.11
2023-03-22T08:52:19.719Z,20.57
2023-03-22T08:54:46.651Z,19.99
2023-03-22T08:57:14.367Z,20.02
2023-03-22T08:59:40.978Z,19.67
2023-03-22T09:02:08.572Z,21.98
2023-03-22T09:04:35.384Z,22.42
2023-03-22T09:07:02.042Z,21.64
2023-03-22T09:09:28.652Z,20.94
2023-03-22T09:11:55.327Z,21.67
2023-03-22T09:14:21.956Z,21.94
2023-03-22T09:16:48.530Z,22.41
2023-03-22T09:19:15.501Z,21.52
2023-03-22T09:21:42.778Z,22.30
2023-03-22T09:24:09.504Z,21.63
2023-03-22T09:26:37.015Z,21.33
2023-03-22T09:29:03.756Z,22.16
2023-03-22T09:31:30.425Z,21.97
2023-03-22T09:33:58.779Z,22.13
2023-03-22T09:36:25.611Z,22.23
2023-03-22T09:38:52.310Z,20.98
2023-03-22T09:41:25.370Z,21.07
2023-03-22T09:43:57.086Z,22.82
2023-03-22T09:46:34.383Z,24.27
2023-03-22T09:49:06.125Z,22.36
2023-03-22T09:51:42.029Z,22.95
2023-03-22T09:54:19.582Z,23.83
2023-03-22T09:56:53.448Z,24.19
2023-03-22T09:59:32.850Z,25.27
2023-03-22T10:02:03.010Z,24.97
2023-03-22T10:04:44.851Z,26.98
2023-03-22T10:07:35.909Z,28.22
2023-03-22T10:10:18.890Z,25.68
2023-03-22T10:13:05.390Z,25.39
2023-03-22T10:15:38.972Z,25.46
2023-03-22T10:18:11.684Z,25.72
2023-03-22T10:20:51.248Z,24.50
2023-03-22T10:23:24.561Z,23.99
2023-03-22T10:25:53.021Z,24.08
2023-03-22T10:28:28.884Z,25.45
2023-03-22T10:30:57.194Z,24.45
2023-03-22T10:33:40.323Z,24.69
2023-03-22T10:36:13.853Z,23.49
2023-03-22T10:38:50.706Z,23.74
2023-03-22T10:41:20.940Z,23.12
2023-03-22T10:43:52.234Z,22.75
2023-03-22T10:46:23.255Z,23.14
2023-03-22T10:48:52.513Z,24.30
2023-03-22T10:51:29.693Z,25.45
2023-03-22T10:53:58.236Z,24.53
2023-03-22T10:56:25.496Z,24.27
2023-03-22T10:58:52.801Z,23.27
2023-03-22T11:01:29.195Z,23.15
2023-03-22T11:04:16.559Z,21.87
2023-03-22T11:06:53.342Z,21.50
2023-03-22T11:09:23.643Z,20.80
2023-03-22T11:11:59.098Z,20.27
2023-03-22T11:14:35.661Z,20.58
2023-03-22T11:17:10.122Z,19.81
2023-03-22T11:19:39.931Z,19.43
2023-03-22T11:22:25.182Z,19.53
2023-03-22T11:24:52.629Z,18.54
2023-03-22T11:27:33.000Z,18.62
2023-03-22T11:30:21.017Z,18.81
2023-03-22T11:32:47.851Z,18.35
2023-03-22T11:35:17.767Z,18.45
2023-03-22T11:37:50.409Z,18.56
2023-03-22T11:40:20.733Z,18.42
2023-03-22T11:42:52.181Z,18.19
2023-03-22T11:45:32.396Z,17.43
2023-03-22T11:48:06.233Z,17.36
2023-03-22T11:50:37.293Z,17.21
2023-03-22T11:53:07.331Z,16.65
2023-03-22T11:55:35.908Z,16.62
2023-03-22T11:58:04.393Z,16.65
2023-03-22T12:00:37.634Z,16.05
2023-03-22T12:03:16.319Z,16.16
2023-03-22T12:05:47.576Z,16.21
2023-03-22T12:08:35.641Z,15.58
2023-03-22T12:11:06.989Z,15.46
2023-03-22T12:13:51.530Z,15.73
2023-03-22T12:16:25.111Z,15.49
2023-03-22T12:19:14.343Z,15.45
2023-03-22T12:21:41.459Z,15.53
2023-03-22T12:24:28.941Z,15.47
2023-03-22T12:27:00.146Z,15.61
2023-03-22T12:29:28.269Z,15.75
2023-03-22T12:32:12.229Z,15.78
2023-03-22T12:34:43.616Z,15.68
2023-03-22T12:37:18.045Z,15.54
2023-03-22T12:39:59.971Z,15.55
2023-03-22T12:42:40.586Z,16.07
2023-03-22T12:45:21.002Z,16.38
2023-03-22T12:47:53.878Z,16.75
2023-03-22T12:50:24.465Z,16.83
2023-03-22T12:52:57.057Z,17.61
2023-03-22T12:55:31.317Z,17.44
2023-03-22T12:57:58.585Z,18.29
2023-03-22T13:00:35.490Z,18.50
2023-03-22T13:03:20.207Z,19.26
2023-03-22T13:06:00.827Z,18.95
2023-03-22T13:09:06.104Z,18.56
2023-03-22T13:11:32.765Z,19.08
2023-03-22T13:13:59.320Z,19.24
2023-03-22T13:16:51.923Z,18.08
2023-03-22T13:19:29.599Z,18.38
2023-03-22T13:22:17.894Z,19.22
2023-03-22T13:24:58.969Z,19.26
2023-03-22T13:27:56.873Z,19.09
2023-03-22T13:30:55.294Z,20.03
2023-03-22T13:33:29.415Z,20.15
2023-03-22T13:35:59.497Z,20.24
2023-03-22T13:38:48.908Z,19.42
2023-03-22T13:41:28.090Z,19.65
2023-03-22T13:44:00.486Z,19.99
2023-03-22T13:46:43.712Z,19.22
2023-03-22T13:49:44.694Z,19.74
2023-03-22T13:52:43.874Z,20.03
2023-03-22T13:55:37.213Z,19.86
2023-03-22T13:58:05.988Z,19.72
2023-03-22T14:00:32.510Z,19.89
2023-03-22T14:03:02.411Z,20.09
2023-03-22T14:05:32.222Z,20.03
2023-03-22T14:08:00.261Z,19.55
2023-03-22T14:10:36.796Z,19.61
2023-03-22T14:13:19.257Z,19.35
2023-03-22T14:15:50.917Z,19.25
2023-03-22T14:18:26.717Z,19.14
2023-03-22T14:20:59.105Z,19.35
